createdAt,value
2017-08-19T00:02:19.970Z,100497.59
2017-08-19T00:04:47.479Z,100500.03
2017-08-19T00:07:15.038Z,100498.86
2017-08-19T00:09:42.490Z,100494.16
2017-08-19T00:12:10.054Z,100494.60
2017-08-19T00:14:38.508Z,100494.95
2017-08-19T00:17:05.955Z,100496.43
2017-08-19T00:19:33.465Z,100501.45
2017-08-19T00:22:00.911Z,100505.86
2017-08-19T00:24:28.397Z,100505.16
2017-08-19T00:26:56.996Z,100508.31
2017-08-19T00:29:24.473Z,100509.11
2017-08-19T00:31:51.929Z,100517.79
2017-08-19T00:34:19.409Z,100514.18
2017-08-19T00:36:46.885Z,100509.27
2017-08-19T00:39:14.409Z,100519.63
2017-08-19T00:41:41.892Z,100510.50
2017-08-19T00:44:09.397Z,100511.78
2017-08-19T00:46:36.917Z,100516.27
2017-08-19T00:49:04.412Z,100511.06
2017-08-19T00:51:31.892Z,100516.54
2017-08-19T00:53:59.383Z,100509.83
2017-08-19T00:56:26.861Z,100510.47
2017-08-19T00:58:54.402Z,100514.22
2017-08-19T01:01:22.000Z,100512.05
2017-08-19T01:03:49.596Z,100512.20
2017-08-19T01:06:17.064Z,100510.19
2017-08-19T01:08:44.614Z,100505.50
2017-08-19T01:11:12.094Z,100502.06
2017-08-19T01:13:39.693Z,100503.20
2017-08-19T01:16:07.159Z,100505.89
2017-08-19T01:18:34.620Z,100506.36
2017-08-19T01:21:02.101Z,100505.22
2017-08-19T01:23:29.562Z,100507.07
2017-08-19T01:26:09.057Z,100504.80
2017-08-19T01:28:36.538Z,100505.75
2017-08-19T01:31:04.029Z,100506.64
2017-08-19T01:33:31.514Z,100508.97
2017-08-19T01:35:59.050Z,100511.08
2017-08-19T01:38:26.602Z,100512.58
2017-08-19T01:40:54.157Z,100515.33
2017-08-19T01:43:21.648Z,100511.63
2017-08-19T01:45:49.105Z,100512.95
2017-08-19T01:48:16.629Z,100513.52
2017-08-19T01:50:44.107Z,100516.16
2017-08-19T01:53:11.593Z,100509.53
2017-08-19T01:55:39.048Z,100512.22
2017-08-19T01:58:06.552Z,100515.22
2017-08-19T02:00:33.995Z,100514.49
2017-08-19T02:03:01.449Z,100519.30
2017-08-19T02:05:28.925Z,100524.69
2017-08-19T02:07:56.475Z,100521.02
2017-08-19T02:10:23.988Z,100512.18
2017-08-19T02:12:51.449Z,100510.13
2017-08-19T02:15:18.930Z,100517.09
2017-08-19T02:17:46.402Z,100525.94
2017-08-19T02:20:13.977Z,100534.63
2017-08-19T02:22:41.539Z,100527.89
2017-08-19T02:25:09.104Z,100539.19
2017-08-19T02:27:36.612Z,100542.86
2017-08-19T02:30:04.116Z,100544.23
2017-08-19T02:32:31.629Z,100545.70
2017-08-19T02:34:59.076Z,100550.52
2017-08-19T02:37:26.558Z,100556.81
2017-08-19T02:39:54.041Z,100554.23
2017-08-19T02:42:21.641Z,100561.94
2017-08-19T02:44:49.104Z,100555.45
2017-08-19T02:47:16.606Z,100556.77
2017-08-19T02:49:44.113Z,100555.20
2017-08-19T02:52:11.830Z,100553.06
2017-08-19T02:54:39.317Z,100561.66
2017-08-19T02:57:06.845Z,100560.88
2017-08-19T02:59:34.324Z,100562.75
2017-08-19T03:02:01.876Z,100562.86
2017-08-19T03:04:29.893Z,100561.80
2017-08-19T03:06:57.339Z,100564.91
2017-08-19T03:09:24.840Z,100559.98
2017-08-19T03:11:52.395Z,100560.48
2017-08-19T03:14:19.961Z,100569.32
2017-08-19T03:16:47.840Z,100573.58
2017-08-19T03:19:15.367Z,100571.80
2017-08-19T03:21:42.816Z,100569.97
2017-08-19T03:24:10.343Z,100573.00
2017-08-19T03:26:37.870Z,100575.12
2017-08-19T03:29:05.682Z,100580.05
2017-08-19T03:31:33.141Z,100587.52
2017-08-19T03:34:00.749Z,100587.01
2017-08-19T03:36:28.216Z,100591.58
2017-08-19T03:38:55.670Z,100598.78
2017-08-19T03:41:23.152Z,100594.62
2017-08-19T03:43:50.613Z,100599.63
2017-08-19T03:46:18.105Z,100598.33
2017-08-19T03:48:45.562Z,100600.25
2017-08-19T03:51:13.184Z,100598.05
2017-08-19T03:53:40.645Z,100606.78
2017-08-19T03:56:08.177Z,100609.10
2017-08-19T03:58:35.630Z,100619.82
2017-08-19T04:01:03.174Z,100621.29
2017-08-19T04:03:30.670Z,100617.68
2017-08-19T04:05:58.130Z,100618.58
2017-08-19T04:08:25.638Z,100623.89
2017-08-19T04:10:53.109Z,100613.13
2017-08-19T04:13:20.591Z,100624.94
2017-08-19T04:15:48.118Z,100624.38
2017-08-19T04:18:15.601Z,100627.91
2017-08-19T04:20:43.066Z,100628.91
2017-08-19T04:23:10.630Z,100633.97
2017-08-19T04:25:38.091Z,100628.76
2017-08-19T04:28:05.609Z,100627.09
2017-08-19T04:30:33.088Z,100634.42
2017-08-19T04:33:00.565Z,100632.11
2017-08-19T04:35:28.049Z,100637.77
2017-08-19T04:37:55.499Z,100633.06
2017-08-19T04:40:22.978Z,100629.09
2017-08-19T04:42:50.441Z,100628.08
2017-08-19T04:45:17.941Z,100629.70
2017-08-19T04:47:45.396Z,100630.23
2017-08-19T04:50:12.877Z,100625.54
2017-08-19T04:52:40.361Z,100634.28
2017-08-19T04:55:07.841Z,100632.75
2017-08-19T04:57:35.553Z,100638.45
2017-08-19T05:00:03.064Z,100636.67
2017-08-19T05:02:30.600Z,100641.30
2017-08-19T05:04:58.053Z,100643.80
2017-08-19T05:07:25.625Z,100642.45
2017-08-19T05:09:53.176Z,100641.90
2017-08-19T05:12:20.662Z,100640.19
2017-08-19T05:14:48.112Z,100641.78
2017-08-19T05:17:15.649Z,100638.56
2017-08-19T05:19:43.220Z,100648.14
2017-08-19T05:22:13.318Z,100642.14
2017-08-19T05:24:40.941Z,100648.34
2017-08-19T05:27:08.429Z,100647.95
2017-08-19T05:29:35.905Z,100634.90
2017-08-19T05:32:03.422Z,100637.33
2017-08-19T05:34:30.912Z,100641.56
2017-08-19T05:36:58.367Z,100634.84
2017-08-19T05:39:25.844Z,100637.64
2017-08-19T05:41:53.485Z,100636.69
2017-08-19T05:44:20.969Z,100633.11
2017-08-19T05:46:48.453Z,100640.92
2017-08-19T05:49:15.961Z,100641.02
2017-08-19T05:51:43.418Z,100644.97
2017-08-19T05:54:10.897Z,100636.83
2017-08-19T05:56:38.408Z,100639.02
2017-08-19T05:59:05.870Z,100643.34
2017-08-19T06:01:33.429Z,100641.06
2017-08-19T06:04:00.889Z,100643.39
2017-08-19T06:06:28.407Z,100651.55
2017-08-19T06:08:55.869Z,100651.94
2017-08-19T06:11:23.383Z,100653.77
2017-08-19T06:13:50.861Z,100661.52
2017-08-19T06:16:18.410Z,100654.48
2017-08-19T06:18:45.905Z,100652.84
2017-08-19T06:21:13.359Z,100660.31
2017-08-19T06:23:40.835Z,100654.41
2017-08-19T06:26:08.300Z,100656.05
2017-08-19T06:28:35.780Z,100659.41
2017-08-19T06:31:03.380Z,100657.92
2017-08-19T06:33:30.901Z,100658.66
2017-08-19T06:35:58.458Z,100663.30
2017-08-19T06:38:26.004Z,100666.77
2017-08-19T06:40:53.577Z,100659.56
2017-08-19T06:43:21.032Z,100668.30
2017-08-19T06:45:48.585Z,100663.34
2017-08-19T06:48:16.140Z,100672.98
2017-08-19T06:50:43.630Z,100672.80
2017-08-19T06:53:11.084Z,100682.86
2017-08-19T06:55:38.608Z,100685.81
2017-08-19T06:58:06.163Z,100686.32
2017-08-19T07:00:33.705Z,100677.63
2017-08-19T07:03:01.159Z,100678.09
2017-08-19T07:05:28.750Z,100693.63
2017-08-19T07:07:56.339Z,100685.94
2017-08-19T07:10:23.892Z,100695.61
2017-08-19T07:12:51.414Z,100697.62
2017-08-19T07:15:19.558Z,100696.98
2017-08-19T07:17:47.078Z,100704.79
2017-08-19T07:20:14.552Z,100708.95
2017-08-19T07:22:42.012Z,100711.64
2017-08-19T07:25:09.501Z,100708.09
2017-08-19T07:27:37.173Z,100714.82
2017-08-19T07:30:04.649Z,100710.22
2017-08-19T07:32:32.129Z,100716.50
2017-08-19T07:34:59.665Z,100716.29
2017-08-19T07:37:27.221Z,100716.59
2017-08-19T07:39:54.766Z,100718.87
2017-08-19T07:42:22.241Z,100722.73
2017-08-19T07:44:49.691Z,100722.77
2017-08-19T07:47:17.193Z,100720.16
2017-08-19T07:49:44.657Z,100716.42
2017-08-19T07:52:12.134Z,100721.14
2017-08-19T07:54:39.916Z,100718.95
2017-08-19T07:57:07.486Z,100717.14
2017-08-19T07:59:35.049Z,100717.09
2017-08-19T08:02:02.539Z,100717.98
2017-08-19T08:04:29.998Z,100722.39
2017-08-19T08:06:57.537Z,100719.84
2017-08-19T08:09:25.087Z,100728.95
2017-08-19T08:11:52.549Z,100737.05
2017-08-19T08:14:20.090Z,100738.30
2017-08-19T08:16:47.540Z,100735.11
2017-08-19T08:19:15.129Z,100728.17
2017-08-19T08:21:42.678Z,100729.84
2017-08-19T08:24:10.270Z,100738.47
2017-08-19T08:26:37.775Z,100732.89
2017-08-19T08:29:05.245Z,100732.55
2017-08-19T08:31:32.864Z,100729.86
2017-08-19T08:34:00.363Z,100736.62
2017-08-19T08:36:27.907Z,100733.04
2017-08-19T08:38:55.472Z,100725.16
2017-08-19T08:41:22.944Z,100727.84
2017-08-19T08:43:50.442Z,100734.33
2017-08-19T08:46:17.941Z,100730.59
2017-08-19T08:48:45.407Z,100731.25
2017-08-19T08:51:12.865Z,100733.71
2017-08-19T08:53:40.362Z,100731.03
2017-08-19T08:56:07.876Z,100733.56
2017-08-19T08:58:35.387Z,100732.70
2017-08-19T09:01:02.869Z,100731.48
2017-08-19T09:03:30.328Z,100728.17
2017-08-19T09:05:57.809Z,100732.74
2017-08-19T09:08:25.405Z,100729.55
2017-08-19T09:10:53.103Z,100729.48
2017-08-19T09:13:20.677Z,100723.89
2017-08-19T09:15:48.373Z,100726.05
2017-08-19T09:18:15.846Z,100723.18
2017-08-19T09:20:43.361Z,100720.56
2017-08-19T09:23:10.889Z,100716.63
2017-08-19T09:25:38.469Z,100720.44
2017-08-19T09:28:05.928Z,100719.03
2017-08-19T09:30:33.409Z,100716.12
2017-08-19T09:33:00.941Z,100715.30
2017-08-19T09:35:28.402Z,100712.47
2017-08-19T09:37:55.884Z,100708.84
2017-08-19T09:40:23.341Z,100707.66
2017-08-19T09:42:50.922Z,100719.99
2017-08-19T09:45:18.462Z,100715.55
2017-08-19T09:47:46.058Z,100722.81
2017-08-19T09:50:13.508Z,100712.20
2017-08-19T09:52:41.008Z,100710.25
2017-08-19T09:55:08.565Z,100703.78
2017-08-19T09:57:36.081Z,100708.11
2017-08-19T10:00:03.576Z,100701.14
2017-08-19T10:02:31.907Z,100713.17
2017-08-19T10:04:59.410Z,100707.05
2017-08-19T10:07:26.907Z,100700.55
2017-08-19T10:09:55.369Z,100704.48
2017-08-19T10:12:22.820Z,100702.51
2017-08-19T10:14:50.307Z,100703.78
2017-08-19T10:17:17.768Z,100703.34
2017-08-19T10:19:45.246Z,100709.77
2017-08-19T10:22:12.749Z,100718.31
2017-08-19T10:24:40.344Z,100708.28
2017-08-19T10:27:07.818Z,100710.92
2017-08-19T10:29:35.309Z,100711.30
2017-08-19T10:32:02.774Z,100709.02
2017-08-19T10:34:30.252Z,100717.41
2017-08-19T10:36:57.776Z,100720.41
2017-08-19T10:39:25.345Z,100719.74
2017-08-19T10:41:52.788Z,100713.58
2017-08-19T10:44:20.264Z,100715.97
2017-08-19T10:46:47.808Z,100711.39
2017-08-19T10:49:15.289Z,100712.86
2017-08-19T10:51:42.820Z,100718.05
2017-08-19T10:54:10.321Z,100716.38
2017-08-19T10:56:37.893Z,100716.59
2017-08-19T10:59:05.366Z,100720.30
2017-08-19T11:01:32.969Z,100720.45
2017-08-19T11:04:00.546Z,100722.73
2017-08-19T11:06:28.083Z,100718.56
2017-08-19T11:08:55.632Z,100716.69
2017-08-19T11:11:23.115Z,100718.34
2017-08-19T11:13:50.577Z,100714.28
2017-08-19T11:16:18.065Z,100723.88
2017-08-19T11:18:45.579Z,100717.39
2017-08-19T11:21:13.086Z,100709.34
2017-08-19T11:23:40.584Z,100717.05
2017-08-19T11:26:08.070Z,100724.28
2017-08-19T11:28:35.535Z,100718.11
2017-08-19T11:31:02.996Z,100725.35
2017-08-19T11:33:30.476Z,100730.02
2017-08-19T11:35:57.934Z,100728.92
2017-08-19T11:38:25.423Z,100720.63
2017-08-19T11:40:52.911Z,100725.37
2017-08-19T11:43:20.384Z,100721.89
2017-08-19T11:45:47.882Z,100723.89
2017-08-19T11:48:15.344Z,100734.45
2017-08-19T11:50:42.810Z,100731.96
2017-08-19T11:53:10.333Z,100732.28
2017-08-19T11:55:37.884Z,100733.03
2017-08-19T11:58:05.381Z,100734.93
2017-08-19T12:00:32.938Z,100729.95
2017-08-19T12:03:00.553Z,100736.56
2017-08-19T12:05:28.057Z,100732.02
2017-08-19T12:07:55.521Z,100723.05
2017-08-19T12:10:23.122Z,100727.39
2017-08-19T12:12:50.585Z,100735.12
2017-08-19T12:15:18.093Z,100732.22
2017-08-19T12:17:45.734Z,100734.98
2017-08-19T12:20:13.562Z,100731.01
2017-08-19T12:22:41.080Z,100738.10
2017-08-19T12:25:08.884Z,100733.22
2017-08-19T12:27:36.362Z,100733.48
2017-08-19T12:30:03.962Z,100730.20
2017-08-19T12:32:31.555Z,100726.23
2017-08-19T12:34:59.299Z,100729.11
2017-08-19T12:37:27.187Z,100729.09
2017-08-19T12:39:55.174Z,100725.82
2017-08-19T12:42:22.699Z,100722.66
2017-08-19T12:44:50.155Z,100734.66
2017-08-19T12:47:17.673Z,100735.96
2017-08-19T12:49:45.864Z,100740.52
2017-08-19T12:52:13.778Z,100735.15
2017-08-19T12:54:41.533Z,100738.80
2017-08-19T12:57:09.317Z,100734.88
2017-08-19T12:59:37.347Z,100738.56
2017-08-19T13:02:05.064Z,100736.52
2017-08-19T13:04:32.708Z,100739.59
2017-08-19T13:07:00.417Z,100736.61
2017-08-19T13:09:27.866Z,100732.63
2017-08-19T13:11:56.188Z,100728.01
2017-08-19T13:14:23.805Z,100734.38
2017-08-19T13:16:51.379Z,100738.25
2017-08-19T13:19:19.305Z,100730.10
2017-08-19T13:21:46.993Z,100734.53
2017-08-19T13:24:14.900Z,100739.97
2017-08-19T13:26:42.794Z,100735.11
2017-08-19T13:29:10.860Z,100735.02
2017-08-19T13:31:38.321Z,100730.99
2017-08-19T13:34:05.913Z,100734.58
2017-08-19T13:36:33.762Z,100727.95
2017-08-19T13:39:01.301Z,100730.84
2017-08-19T13:41:28.750Z,100722.92
2017-08-19T13:43:56.245Z,100736.45
2017-08-19T13:46:23.814Z,100723.94
2017-08-19T13:48:51.289Z,100735.37
2017-08-19T13:51:18.757Z,100732.02
2017-08-19T13:53:46.281Z,100730.84
2017-08-19T13:56:13.845Z,100736.25
2017-08-19T13:58:41.334Z,100723.47
2017-08-19T14:01:08.860Z,100724.42
2017-08-19T14:03:36.418Z,100719.11
2017-08-19T14:06:03.890Z,100718.13
2017-08-19T14:08:31.351Z,100723.27
2017-08-19T14:10:59.005Z,100721.34
2017-08-19T14:13:26.561Z,100726.88
2017-08-19T14:15:54.080Z,100729.13
2017-08-19T14:18:21.543Z,100727.47
2017-08-19T14:20:49.021Z,100726.95
2017-08-19T14:23:16.663Z,100727.56
2017-08-19T14:25:44.183Z,100716.91
2017-08-19T14:28:12.090Z,100715.63
2017-08-19T14:30:39.606Z,100717.20
2017-08-19T14:33:07.068Z,100721.41
2017-08-19T14:35:34.538Z,100714.22
2017-08-19T14:38:02.033Z,100718.45
2017-08-19T14:40:29.669Z,100712.07
2017-08-19T14:42:57.189Z,100701.64
2017-08-19T14:45:24.660Z,100700.58
2017-08-19T14:47:52.158Z,100704.70
2017-08-19T14:50:19.614Z,100706.28
2017-08-19T14:52:47.184Z,100710.34
2017-08-19T14:55:14.647Z,100709.88
2017-08-19T14:57:42.179Z,100711.48
2017-08-19T15:00:09.643Z,100710.52
2017-08-19T15:02:37.137Z,100713.98
2017-08-19T15:05:04.604Z,100708.64
2017-08-19T15:07:32.065Z,100707.45
2017-08-19T15:09:59.549Z,100709.11
2017-08-19T15:12:27.057Z,100706.16
2017-08-19T15:14:54.601Z,100711.66
2017-08-19T15:17:22.069Z,100707.92
2017-08-19T15:19:49.601Z,100714.44
2017-08-19T15:22:17.071Z,100713.98
2017-08-19T15:24:44.630Z,100712.51
2017-08-19T15:27:12.191Z,100715.73
2017-08-19T15:29:39.734Z,100712.88
2017-08-19T15:32:07.214Z,100723.32
2017-08-19T15:34:34.766Z,100728.23
2017-08-19T15:37:02.245Z,100720.50
2017-08-19T15:39:29.781Z,100729.77
2017-08-19T15:41:57.249Z,100718.76
2017-08-19T15:44:24.727Z,100717.48
2017-08-19T15:46:52.215Z,100715.68
2017-08-19T15:49:19.688Z,100714.32
2017-08-19T15:51:47.176Z,100715.20
2017-08-19T15:54:14.705Z,100721.77
2017-08-19T15:56:42.449Z,100717.36
2017-08-19T15:59:09.942Z,100717.24
2017-08-19T16:01:37.504Z,100725.56
2017-08-19T16:04:04.977Z,100720.73
2017-08-19T16:06:32.495Z,100721.02
2017-08-19T16:09:00.276Z,100722.64
2017-08-19T16:11:27.763Z,100723.92
2017-08-19T16:13:55.293Z,100724.95
2017-08-19T16:16:22.804Z,100721.72
2017-08-19T16:18:50.303Z,100720.91
2017-08-19T16:21:17.811Z,100723.62
2017-08-19T16:23:45.293Z,100727.08
2017-08-19T16:26:12.788Z,100732.56
2017-08-19T16:28:40.266Z,100732.47
2017-08-19T16:31:07.770Z,100728.07
2017-08-19T16:33:35.290Z,100731.98
2017-08-19T16:36:02.761Z,100732.82
2017-08-19T16:38:30.252Z,100744.09
2017-08-19T16:40:57.729Z,100739.35
2017-08-19T16:43:25.228Z,100742.58
2017-08-19T16:45:52.733Z,100742.55
2017-08-19T16:48:20.254Z,100737.59
2017-08-19T16:50:47.792Z,100748.52
2017-08-19T16:53:15.291Z,100748.95
2017-08-19T16:55:42.779Z,100755.39
2017-08-19T16:58:10.278Z,100754.09
2017-08-19T17:03:11.626Z,100758.58
2017-08-19T17:05:39.088Z,100757.61
2017-08-19T17:08:06.572Z,100751.37
2017-08-19T17:10:34.047Z,100756.41
2017-08-19T17:13:01.564Z,100753.55
2017-08-19T17:15:29.050Z,100755.45
2017-08-19T17:17:56.670Z,100762.11
2017-08-19T17:20:24.230Z,100766.77
2017-08-19T17:22:51.725Z,100770.59
2017-08-19T17:25:19.194Z,100767.19
2017-08-19T17:27:46.666Z,100771.19
2017-08-19T17:30:14.158Z,100774.16
2017-08-19T17:32:41.693Z,100770.48
2017-08-19T17:35:09.245Z,100767.66
2017-08-19T17:37:36.706Z,100778.88
2017-08-19T17:40:04.239Z,100783.23
2017-08-19T17:42:31.701Z,100794.25
2017-08-19T17:44:59.665Z,100799.38
2017-08-19T17:47:27.125Z,100815.94
2017-08-19T17:49:54.689Z,100825.37
2017-08-19T17:52:22.561Z,100831.98
2017-08-19T17:54:50.126Z,100831.23
2017-08-19T17:57:17.610Z,100833.03
2017-08-19T17:59:45.129Z,100827.53
2017-08-19T18:02:12.590Z,100830.18
2017-08-19T18:04:40.114Z,100826.47
2017-08-19T18:07:07.609Z,100821.80
2017-08-19T18:09:35.084Z,100828.91
2017-08-19T18:12:02.565Z,100824.88
2017-08-19T18:14:30.010Z,100827.78
2017-08-19T18:16:57.485Z,100829.91
2017-08-19T18:19:24.945Z,100833.52
2017-08-19T18:21:52.424Z,100832.96
2017-08-19T18:24:19.992Z,100837.36
2017-08-19T18:26:47.474Z,100835.09
2017-08-19T18:29:14.944Z,100838.39
2017-08-19T18:31:42.459Z,100834.98
2017-08-19T18:34:09.915Z,100845.50
2017-08-19T18:36:37.479Z,100836.37
2017-08-19T18:39:05.046Z,100837.00
2017-08-19T18:41:32.523Z,100833.44
2017-08-19T18:44:00.053Z,100842.52
2017-08-19T18:46:28.940Z,100837.38
2017-08-19T18:48:57.965Z,100852.56
2017-08-19T18:51:26.054Z,100851.59
2017-08-19T18:53:54.882Z,100850.17
2017-08-19T18:56:23.794Z,100857.62
2017-08-19T18:58:51.483Z,100855.89
2017-08-19T19:01:20.650Z,100852.62
2017-08-19T19:03:49.708Z,100855.46
2017-08-19T19:06:18.652Z,100856.41
2017-08-19T19:08:47.440Z,100860.66
2017-08-19T19:11:16.495Z,100860.05
2017-08-19T19:13:45.499Z,100863.33
2017-08-19T19:16:14.543Z,100864.44
2017-08-19T19:18:43.723Z,100873.02
2017-08-19T19:21:11.323Z,100874.06
2017-08-19T19:23:38.807Z,100875.81
2017-08-19T19:26:06.247Z,100883.16
2017-08-19T19:28:33.727Z,100880.30
2017-08-19T19:31:01.245Z,100889.73
2017-08-19T19:33:28.955Z,100885.31
2017-08-19T19:35:56.416Z,100883.91
2017-08-19T19:38:23.950Z,100882.39
2017-08-19T19:40:51.416Z,100885.47
2017-08-19T19:43:18.904Z,100888.16
2017-08-19T19:45:46.911Z,100892.08
2017-08-19T19:48:14.409Z,100890.70
2017-08-19T19:50:41.965Z,100888.31
2017-08-19T19:53:09.448Z,100890.46
2017-08-19T19:55:36.913Z,100888.66
2017-08-19T19:58:04.535Z,100900.09
2017-08-19T20:00:31.998Z,100905.33
2017-08-19T20:02:59.688Z,100898.30
2017-08-19T20:05:27.214Z,100901.28
2017-08-19T20:07:54.773Z,100903.63
2017-08-19T20:10:22.526Z,100908.34
2017-08-19T20:12:50.125Z,100909.87
2017-08-19T20:15:17.639Z,100907.14
2017-08-19T20:17:45.109Z,100912.47
2017-08-19T20:20:12.619Z,100913.95
2017-08-19T20:22:40.417Z,100921.86
2017-08-19T20:25:07.886Z,100923.84
2017-08-19T20:27:35.349Z,100923.36
2017-08-19T20:30:02.833Z,100924.67
2017-08-19T20:32:30.300Z,100927.41
2017-08-19T20:34:58.458Z,100928.50
2017-08-19T20:37:25.980Z,100933.94
2017-08-19T20:39:53.487Z,100934.98
2017-08-19T20:42:21.225Z,100933.80
2017-08-19T20:44:48.769Z,100930.44
2017-08-19T20:47:16.525Z,100924.82
2017-08-19T20:49:44.053Z,100931.85
2017-08-19T20:52:11.545Z,100938.56
2017-08-19T20:54:39.015Z,100939.48
2017-08-19T20:57:06.524Z,100943.85
2017-08-19T20:59:34.398Z,100941.55
2017-08-19T21:02:01.847Z,100937.33
2017-08-19T21:04:29.330Z,100941.97
2017-08-19T21:06:56.834Z,100938.04
2017-08-19T21:09:24.325Z,100931.94
2017-08-19T21:11:52.074Z,100937.70
2017-08-19T21:14:19.550Z,100942.90
2017-08-19T21:16:47.009Z,100940.79
2017-08-19T21:19:14.493Z,100942.10
2017-08-19T21:21:41.981Z,100951.02
2017-08-19T21:24:10.769Z,100950.72
2017-08-19T21:26:38.254Z,100947.91
2017-08-19T21:29:05.757Z,100949.05
2017-08-19T21:31:33.248Z,100956.05
2017-08-19T21:34:00.713Z,100952.72
2017-08-19T21:36:28.201Z,100955.57
2017-08-19T21:38:55.643Z,100951.05
2017-08-19T21:41:23.162Z,100957.53
2017-08-19T21:43:50.739Z,100958.50
2017-08-19T21:46:18.277Z,100950.86
2017-08-19T21:48:45.805Z,100946.91
2017-08-19T21:51:13.271Z,100951.86
2017-08-19T21:53:40.827Z,100950.22
2017-08-19T21:56:08.309Z,100955.89
2017-08-19T21:58:35.774Z,100954.61
2017-08-19T22:01:03.265Z,100958.78
2017-08-19T22:03:30.761Z,100964.91
2017-08-19T22:05:58.296Z,100960.58
2017-08-19T22:08:25.775Z,100967.21
2017-08-19T22:10:53.258Z,100965.24
2017-08-19T22:13:20.733Z,100956.98
2017-08-19T22:15:48.217Z,100960.44
2017-08-19T22:18:15.672Z,100956.05
2017-08-19T22:20:43.152Z,100960.32
2017-08-19T22:23:10.608Z,100971.41
2017-08-19T22:25:38.103Z,100965.34
2017-08-19T22:28:05.570Z,100971.73
2017-08-19T22:30:33.056Z,100966.54
2017-08-19T22:33:00.514Z,100963.12
2017-08-19T22:35:27.997Z,100967.46
2017-08-19T22:37:55.549Z,100962.60
2017-08-19T22:40:23.023Z,100964.09
2017-08-19T22:42:50.613Z,100963.20
2017-08-19T22:45:18.097Z,100968.39
2017-08-19T22:56:24.060Z,100961.55
2017-08-19T22:58:52.479Z,100967.34
2017-08-19T23:01:19.966Z,100962.45
2017-08-19T23:03:47.454Z,100968.11
2017-08-19T23:06:15.095Z,100963.17
2017-08-19T23:08:42.753Z,100972.92
2017-08-19T23:11:10.299Z,100965.56
2017-08-19T23:13:37.765Z,100974.75
2017-08-19T23:16:05.248Z,100970.53
2017-08-19T23:18:32.778Z,100979.11
2017-08-19T23:21:00.499Z,100980.11
2017-08-19T23:23:27.987Z,100974.73
2017-08-19T23:25:55.554Z,100975.02
2017-08-19T23:28:23.007Z,100977.98
2017-08-19T23:30:50.470Z,100979.11
2017-08-19T23:33:17.929Z,100982.85
2017-08-19T23:35:45.430Z,100988.03
2017-08-19T23:38:12.908Z,100990.22
2017-08-19T23:40:40.412Z,100990.52
2017-08-19T23:43:07.874Z,100985.52
2017-08-19T23:45:35.383Z,100984.34
2017-08-19T23:48:02.880Z,100985.28
2017-08-19T23:50:30.370Z,100985.20
2017-08-19T23:52:57.873Z,100989.13
2017-08-19T23:55:25.327Z,100989.61
2017-08-19T23:57:52.806Z,100993.23
